Etusivu
METAR-TAF:

METAR-TAF

Lentoasemat :

Shanghai-Pudong, Kiina

Shanghai Pudongin kansainvälinen lentoasema

Leveyspiiri: 31-07N, Pituuspiiri: 121-46E, korkeus merenpinnasta: 4 m

Tämänhetkinen sää

Tämä raportti tehtiin 21 minuuttia sitten, kello 11.00 UTC
Tuuli 6 kn lännestä/lounaasta
Lämpötila 10°C
Kosteus 46%
Ilmanpaine 1026 hPa
Näkyvyys 10 km tai enemmän
ei pilviä alle 1500 m:ssä eikä cumulonimbus-pilviä

METAR: ZSPD 231100Z 25003MPS CAVOK 10/M01 Q1026 NOSIG

Aika: 19:21 (11:21 UTC)

Sääennuste

Tämä raportti tehtiin 8 tuntia ja 10 minuuttia sitten, kello 03.11 UTC
Ennuste voimassa 23. päivästä klo 06 UTC - 24. päivään klo 06 UTC
Tuuli 8 kn pohjoisen/luoteesta
Näkyvyys: 6000 m
Hajanaisia pilviä 2000 ft:n korkeudessa

TAF: ZSPD 230311Z 2306/2406 34004MPS 6000 SCT020 TX13/2307Z TN07/2321Z

Säähavainnot ja -ennusteet yli 4000 lentoasemalta (METAR- ja TAF-raportit).

Käytössä olevat sääasemat on merkitty karttaan keltaisilla ja punaisilla pisteillä.

Aseta hiiri pisteen päälle nähdäksesi sääaseman nimen.

Klikkaa sitten nähdäksesi säähavainnot ja -ennusteet.

Kartan vaihtaminen: klikkaa mustalla rastilla varustettuja vihreitä pisteitä, niin voit zoomata sisään; viivalla varustettua vihreää pistettä, niin voit zoomata ulos tai vihreitä nuolia, niin pääset viereisille kartoille.


METAR-TAF: